Dauntless Aviation
Airports Europe United Kingdom
EGLC
LCY

London City

London, UNITED KINGDOM

Airport Info
Suggest Updated Information for this Airport

Location

Latitude / Longitude: 51°30'18"N / 0°3'12"E
  51°30.3'N / 0°3.21'E
  51.5050 / 0.0535

Nearby radio navigation aids

LCY CITY NDB on field.

Runway Information

Runway 10 /28

Dimensions: 4948 x 98 ft.
Surface: ASP
 
Runway 10
Runway 28
Latitude: 51.505528 51.504922
Longitude: 0.045753 0.064953
Elevation: 16 ft. 16 ft.
Runway true heading: 91.1 271.1
 

Instrument Procedures

  Control Zone and Control Area Chart
  Aircraft Parking/Docking Chart
  Aerodrome Chart

STARs (Standard Terminal Arrivals)

  STAR via SPEAR (Northwest)
  STAR via ALKIN (South)
  STAR via SPEAR (East)
  STAR via SPEAR (West)
  STAR via SPEAR (Alternate Holding at LOGAN and ALKIN)

IAPs (Instrument Approach Procedures)

  LOC/DME/NDB (L) Rwy 27 (Aircraft CAT A/B/C)
  Visual Approach Profile Rwy 27
  ILS (5.5°GP) /DME/NDB (L) Rwy 27 (Aircraft CAT A/B/C)
  Visual Approach Profile Rwy 09
  LOC/DME/NDB (L) Rwy 09
  ATC Surveillance Minimum Altitude Chart
  ILS (5.5°GP) /DME/NDB (L) Rwy 09 (Aircraft CAT A/B/C)

Departure Procedures

  SID DOVER/LYDD
  SID CLACTON
  SID SOUTHAMPTON
  SID BROOKMANS PARK/COMPTON
Satellite photo at:
Airport distance calculator
From:
Weather Reports

METAR

EGLC

EGLC 281750Z 21007KT 9999 FEW014 BKN020 20/15 Q1012
EGKB
11.4nm S
EGKB 281750Z 22009KT 9999 4000S -DZ BKN006 17/16 Q1013
EGWU
17.8nm W
EGWU 281750Z 22007KT 9999 SCT016 SCT040 19/17 Q1011 WHT BECMG SCT025 BLU
EGLL
18.9nm SW
EGLL 281750Z AUTO 22009KT 190V250 9999 BKN011 20/17 Q1012 BECMG FEW012
EGSS
23.5nm N
EGSS 281750Z AUTO 21012KT 9999 BKN014 19/15 Q1012
EGKK
23.8nm S
EGKK 281750Z 21005KT 9999 SCT006 BKN009 18/17 Q1013

TAF

EGLC
TAF EGLC 281703Z 2818/2821 22009KT 9999 SCT040 PROB30 TEMPO 2818/2820 4000 +SHRA BKN012
EGKB
11.4nm S
TAF EGKB 281703Z 2818/2820 23010KT 9999 SCT020 PROB40 TEMPO 2818/2820 4000 +SHRA BKN008
EGWU
17.8nm W
TAF EGWU 281654Z 2818/2912 24008KT 9999 SCT020 BKN035 BECMG 2818/2821 SCT035 TEMPO 2818/2820 6000 SHRA BKN018CB PROB30 TEMPO 2902/2908 SCT010
EGLL
18.9nm SW
TAF EGLL 281702Z 2818/2924 21010KT 9999 SCT030 TEMPO 2818/2820 7000 SHRA BKN012 BECMG 2820/2823 27008KT PROB30 TEMPO 2902/2907 BKN012 PROB30 TEMPO 2912/2919 8000 SHRA
EGSS
23.5nm N
TAF AMD EGSS 281732Z 2818/2924 23008KT 9999 SCT030 PROB30 TEMPO 2818/2820 4000 +SHRA BKN014 PROB30 TEMPO 2906/2910 8000 BKN009 PROB30 TEMPO 2910/2920 6000 SHRA
EGKK
23.8nm S
TAF EGKK 281706Z 2818/2924 23008KT 9999 SCT030 PROB30 TEMPO 2818/2820 3000 +SHRA BKN010 BKN020CB PROB40 TEMPO 2902/2908 BKN012 PROB30 TEMPO 2912/2920 7000 SHRA
Safelog

 

Dauntless Aviation

© 2007-2016 Dauntless Aviation, all rights reserved
Information provided via PilotNav comes from a variety of official and unofficial data sources. As errors are possible, do not use PilotNav for primary flight planning purposes. Verify any information that you receive via PilotNav with current and canonical charts and other official documents. The material in this database is subject to database copyrights held by Dauntless Aviation and may not be copied without the express permission of Dauntless Aviation - licenses for use of part of all of this data are available for purchase; enquire via the Dauntless Aviation helpdesk. A number of mechanisms and markers exist in the database to protect against and identify infringement / copyright. Automated queries against this website are stictly prohibited, and all activity is logged and analyzed.